Terminal Aerodrome Forecast
Issued by NWS

Home | Current Version | Previous Version | Text Only | Print | Product List | Glossary On
Versions: 1 2 3 4 5 6 7 8 9 10 11 12 13 14 15 16 17 18 19 20 21 22 23 24 25 26 27 28 29
000
FTUS43 KAPX 250540
TAFTVC
TAF
KTVC 250540Z 2506/2606 03005KT P6SM BKN060
     FM250800 03005KT P6SM BKN030
     FM251000 02005KT P6SM VCSH BKN020
     FM251400 02007KT P6SM VCSH BKN015
     FM251800 03009KT P6SM BKN015
     FM260000 04005KT P6SM OVC025
     FM260300 02005KT 5SM BR OVC025=

USA.gov is the U.S. government's official web portal to all federal, state and local government web resources and services.